sensor_id;sensor_type;location;lat;lon;timestamp;P1;durP1;ratioP1;P2;durP2;ratioP2
26060;SDS011;36331;51.378;0.018;2022-07-26T00:01:46;3.03;;;0.45;;
26060;SDS011;36331;51.378;0.018;2022-07-26T00:04:15;2.22;;;0.60;;
26060;SDS011;36331;51.378;0.018;2022-07-26T00:06:47;1.80;;;0.60;;
26060;SDS011;36331;51.378;0.018;2022-07-26T00:09:18;2.83;;;0.52;;
26060;SDS011;36331;51.378;0.018;2022-07-26T00:11:47;1.45;;;0.50;;
26060;SDS011;36331;51.378;0.018;2022-07-26T00:14:19;2.88;;;0.60;;
26060;SDS011;36331;51.378;0.018;2022-07-26T00:16:49;1.00;;;0.60;;
26060;SDS011;36331;51.378;0.018;2022-07-26T00:19:20;4.97;;;0.63;;
26060;SDS011;36331;51.378;0.018;2022-07-26T00:21:50;3.10;;;0.60;;
26060;SDS011;36331;51.378;0.018;2022-07-26T00:24:40;6.05;;;1.08;;
26060;SDS011;36331;51.378;0.018;2022-07-26T00:27:13;3.28;;;0.68;;
26060;SDS011;36331;51.378;0.018;2022-07-26T00:29:43;2.13;;;0.60;;
26060;SDS011;36331;51.378;0.018;2022-07-26T00:32:17;4.18;;;1.27;;
26060;SDS011;36331;51.378;0.018;2022-07-26T00:34:46;2.37;;;0.90;;
26060;SDS011;36331;51.378;0.018;2022-07-26T00:37:19;4.10;;;0.80;;
26060;SDS011;36331;51.378;0.018;2022-07-26T00:39:49;3.45;;;0.85;;
26060;SDS011;36331;51.378;0.018;2022-07-26T00:42:18;4.40;;;0.93;;
26060;SDS011;36331;51.378;0.018;2022-07-26T00:44:48;4.18;;;1.05;;
26060;SDS011;36331;51.378;0.018;2022-07-26T00:47:18;3.45;;;1.67;;
26060;SDS011;36331;51.378;0.018;2022-07-26T00:49:48;3.95;;;0.70;;
26060;SDS011;36331;51.378;0.018;2022-07-26T00:52:19;2.15;;;0.70;;
26060;SDS011;36331;51.378;0.018;2022-07-26T00:54:49;2.67;;;1.17;;
26060;SDS011;36331;51.378;0.018;2022-07-26T00:57:20;2.67;;;0.60;;
26060;SDS011;36331;51.378;0.018;2022-07-26T00:59:49;4.47;;;0.65;;
26060;SDS011;36331;51.378;0.018;2022-07-26T01:02:19;4.18;;;1.00;;
26060;SDS011;36331;51.378;0.018;2022-07-26T01:04:50;1.75;;;0.60;;
26060;SDS011;36331;51.378;0.018;2022-07-26T01:07:22;3.15;;;0.80;;
26060;SDS011;36331;51.378;0.018;2022-07-26T01:09:52;5.10;;;1.17;;
26060;SDS011;36331;51.378;0.018;2022-07-26T01:12:23;2.47;;;0.70;;
26060;SDS011;36331;51.378;0.018;2022-07-26T01:14:53;2.10;;;0.63;;
26060;SDS011;36331;51.378;0.018;2022-07-26T01:17:23;3.38;;;0.70;;
26060;SDS011;36331;51.378;0.018;2022-07-26T01:19:52;2.40;;;0.80;;
26060;SDS011;36331;51.378;0.018;2022-07-26T01:22:23;3.47;;;0.82;;
26060;SDS011;36331;51.378;0.018;2022-07-26T01:24:53;4.00;;;0.68;;
26060;SDS011;36331;51.378;0.018;2022-07-26T01:27:22;3.03;;;0.77;;
26060;SDS011;36331;51.378;0.018;2022-07-26T01:29:58;4.97;;;0.93;;
26060;SDS011;36331;51.378;0.018;2022-07-26T01:32:28;3.25;;;0.65;;
26060;SDS011;36331;51.378;0.018;2022-07-26T01:34:57;4.68;;;1.00;;
26060;SDS011;36331;51.378;0.018;2022-07-26T01:37:28;1.33;;;0.70;;
26060;SDS011;36331;51.378;0.018;2022-07-26T01:39:58;3.70;;;0.98;;
26060;SDS011;36331;51.378;0.018;2022-07-26T01:42:27;2.25;;;0.90;;
26060;SDS011;36331;51.378;0.018;2022-07-26T01:44:58;2.33;;;0.93;;
26060;SDS011;36331;51.378;0.018;2022-07-26T01:47:27;3.28;;;0.85;;
26060;SDS011;36331;51.378;0.018;2022-07-26T01:49:58;3.35;;;0.80;;
26060;SDS011;36331;51.378;0.018;2022-07-26T01:52:30;5.07;;;1.10;;
26060;SDS011;36331;51.378;0.018;2022-07-26T01:55:00;7.43;;;1.25;;
26060;SDS011;36331;51.378;0.018;2022-07-26T01:57:30;3.30;;;1.07;;
26060;SDS011;36331;51.378;0.018;2022-07-26T02:00:00;2.08;;;0.75;;
26060;SDS011;36331;51.378;0.018;2022-07-26T02:02:33;3.80;;;1.17;;
26060;SDS011;36331;51.378;0.018;2022-07-26T02:05:03;3.63;;;1.08;;
26060;SDS011;36331;51.378;0.018;2022-07-26T02:07:39;2.13;;;0.80;;
26060;SDS011;36331;51.378;0.018;2022-07-26T02:10:11;6.85;;;1.98;;
26060;SDS011;36331;51.378;0.018;2022-07-26T02:12:40;3.05;;;0.60;;
26060;SDS011;36331;51.378;0.018;2022-07-26T02:15:12;3.30;;;0.90;;
26060;SDS011;36331;51.378;0.018;2022-07-26T02:17:41;2.83;;;1.00;;
26060;SDS011;36331;51.378;0.018;2022-07-26T02:20:11;2.58;;;0.88;;
26060;SDS011;36331;51.378;0.018;2022-07-26T02:22:51;4.13;;;1.10;;
26060;SDS011;36331;51.378;0.018;2022-07-26T02:25:22;3.05;;;1.25;;
26060;SDS011;36331;51.378;0.018;2022-07-26T02:27:51;3.60;;;1.02;;
26060;SDS011;36331;51.378;0.018;2022-07-26T02:30:20;2.78;;;0.80;;
26060;SDS011;36331;51.378;0.018;2022-07-26T02:32:50;4.25;;;1.15;;
26060;SDS011;36331;51.378;0.018;2022-07-26T02:35:19;3.97;;;1.00;;
26060;SDS011;36331;51.378;0.018;2022-07-26T02:37:49;2.38;;;1.10;;
26060;SDS011;36331;51.378;0.018;2022-07-26T02:40:20;5.60;;;1.17;;
26060;SDS011;36331;51.378;0.018;2022-07-26T02:42:50;1.17;;;0.90;;
26060;SDS011;36331;51.378;0.018;2022-07-26T02:45:20;6.78;;;1.75;;
26060;SDS011;36331;51.378;0.018;2022-07-26T02:47:50;4.35;;;1.27;;
26060;SDS011;36331;51.378;0.018;2022-07-26T02:50:20;3.92;;;1.55;;
26060;SDS011;36331;51.378;0.018;2022-07-26T02:52:50;2.75;;;1.30;;
26060;SDS011;36331;51.378;0.018;2022-07-26T02:55:23;3.90;;;1.20;;
26060;SDS011;36331;51.378;0.018;2022-07-26T02:57:53;1.80;;;0.95;;
26060;SDS011;36331;51.378;0.018;2022-07-26T03:00:24;3.72;;;1.40;;
26060;SDS011;36331;51.378;0.018;2022-07-26T03:02:54;5.47;;;2.20;;
26060;SDS011;36331;51.378;0.018;2022-07-26T03:05:23;5.20;;;1.48;;
26060;SDS011;36331;51.378;0.018;2022-07-26T03:07:53;2.55;;;1.38;;
26060;SDS011;36331;51.378;0.018;2022-07-26T03:10:25;3.65;;;1.55;;
26060;SDS011;36331;51.378;0.018;2022-07-26T03:13:09;3.45;;;1.42;;
26060;SDS011;36331;51.378;0.018;2022-07-26T03:15:38;2.53;;;1.10;;
26060;SDS011;36331;51.378;0.018;2022-07-26T03:18:07;4.57;;;1.70;;
26060;SDS011;36331;51.378;0.018;2022-07-26T03:20:36;3.17;;;1.58;;
26060;SDS011;36331;51.378;0.018;2022-07-26T03:23:06;3.50;;;1.20;;
26060;SDS011;36331;51.378;0.018;2022-07-26T03:25:37;3.35;;;1.20;;
26060;SDS011;36331;51.378;0.018;2022-07-26T03:28:06;4.00;;;1.67;;
26060;SDS011;36331;51.378;0.018;2022-07-26T03:30:35;8.05;;;2.00;;
26060;SDS011;36331;51.378;0.018;2022-07-26T03:33:05;2.13;;;1.10;;
26060;SDS011;36331;51.378;0.018;2022-07-26T03:35:34;3.75;;;1.35;;
26060;SDS011;36331;51.378;0.018;2022-07-26T03:38:04;4.15;;;1.17;;
26060;SDS011;36331;51.378;0.018;2022-07-26T03:40:33;4.85;;;2.10;;
26060;SDS011;36331;51.378;0.018;2022-07-26T03:43:04;4.53;;;1.15;;
26060;SDS011;36331;51.378;0.018;2022-07-26T03:45:33;3.72;;;1.50;;
26060;SDS011;36331;51.378;0.018;2022-07-26T03:48:03;3.58;;;1.13;;
26060;SDS011;36331;51.378;0.018;2022-07-26T03:50:32;4.38;;;1.23;;
26060;SDS011;36331;51.378;0.018;2022-07-26T03:53:01;3.63;;;1.50;;
26060;SDS011;36331;51.378;0.018;2022-07-26T03:55:31;3.42;;;1.20;;
26060;SDS011;36331;51.378;0.018;2022-07-26T03:58:18;3.03;;;1.45;;
26060;SDS011;36331;51.378;0.018;2022-07-26T04:00:48;3.50;;;1.65;;
26060;SDS011;36331;51.378;0.018;2022-07-26T04:03:20;2.33;;;1.10;;
26060;SDS011;36331;51.378;0.018;2022-07-26T04:05:49;4.85;;;1.58;;
26060;SDS011;36331;51.378;0.018;2022-07-26T04:08:19;2.45;;;1.30;;
26060;SDS011;36331;51.378;0.018;2022-07-26T04:10:48;4.70;;;1.73;;
26060;SDS011;36331;51.378;0.018;2022-07-26T04:13:19;5.70;;;1.90;;
26060;SDS011;36331;51.378;0.018;2022-07-26T04:15:50;3.97;;;2.50;;
26060;SDS011;36331;51.378;0.018;2022-07-26T04:18:19;3.72;;;1.80;;
26060;SDS011;36331;51.378;0.018;2022-07-26T04:20:50;4.65;;;2.08;;
26060;SDS011;36331;51.378;0.018;2022-07-26T04:23:20;6.03;;;1.90;;
26060;SDS011;36331;51.378;0.018;2022-07-26T04:25:49;4.68;;;2.08;;
26060;SDS011;36331;51.378;0.018;2022-07-26T04:28:20;3.70;;;1.50;;
26060;SDS011;36331;51.378;0.018;2022-07-26T04:30:53;5.10;;;1.92;;
26060;SDS011;36331;51.378;0.018;2022-07-26T04:33:22;5.45;;;2.28;;
26060;SDS011;36331;51.378;0.018;2022-07-26T04:35:52;5.97;;;1.73;;
26060;SDS011;36331;51.378;0.018;2022-07-26T04:38:22;2.97;;;1.63;;
26060;SDS011;36331;51.378;0.018;2022-07-26T04:40:51;4.93;;;1.88;;
26060;SDS011;36331;51.378;0.018;2022-07-26T04:43:24;3.63;;;1.65;;
26060;SDS011;36331;51.378;0.018;2022-07-26T04:45:54;4.45;;;1.83;;
26060;SDS011;36331;51.378;0.018;2022-07-26T04:48:24;4.80;;;1.48;;
26060;SDS011;36331;51.378;0.018;2022-07-26T04:50:53;4.78;;;1.60;;
26060;SDS011;36331;51.378;0.018;2022-07-26T04:53:23;2.97;;;1.75;;
26060;SDS011;36331;51.378;0.018;2022-07-26T04:55:53;4.72;;;1.30;;
26060;SDS011;36331;51.378;0.018;2022-07-26T04:58:25;5.85;;;1.48;;
26060;SDS011;36331;51.378;0.018;2022-07-26T05:00:55;1.85;;;1.30;;
26060;SDS011;36331;51.378;0.018;2022-07-26T05:03:42;4.40;;;1.25;;
26060;SDS011;36331;51.378;0.018;2022-07-26T05:06:12;2.33;;;1.55;;
26060;SDS011;36331;51.378;0.018;2022-07-26T05:08:42;12.65;;;2.03;;
26060;SDS011;36331;51.378;0.018;2022-07-26T05:11:12;3.72;;;1.27;;
26060;SDS011;36331;51.378;0.018;2022-07-26T05:13:43;2.83;;;1.50;;
26060;SDS011;36331;51.378;0.018;2022-07-26T05:16:12;5.72;;;1.20;;
26060;SDS011;36331;51.378;0.018;2022-07-26T05:18:43;4.50;;;1.48;;
26060;SDS011;36331;51.378;0.018;2022-07-26T05:21:15;6.07;;;1.77;;
26060;SDS011;36331;51.378;0.018;2022-07-26T05:23:47;3.50;;;1.10;;
26060;SDS011;36331;51.378;0.018;2022-07-26T05:26:17;4.82;;;1.20;;
26060;SDS011;36331;51.378;0.018;2022-07-26T05:28:49;3.92;;;1.25;;
26060;SDS011;36331;51.378;0.018;2022-07-26T05:31:19;4.05;;;1.10;;
26060;SDS011;36331;51.378;0.018;2022-07-26T05:33:49;4.00;;;1.00;;
26060;SDS011;36331;51.378;0.018;2022-07-26T05:36:18;2.90;;;1.02;;
26060;SDS011;36331;51.378;0.018;2022-07-26T05:38:48;4.45;;;1.00;;
26060;SDS011;36331;51.378;0.018;2022-07-26T05:41:17;4.38;;;0.98;;
26060;SDS011;36331;51.378;0.018;2022-07-26T05:43:49;2.75;;;1.25;;
26060;SDS011;36331;51.378;0.018;2022-07-26T05:46:19;3.80;;;0.95;;
26060;SDS011;36331;51.378;0.018;2022-07-26T05:48:48;3.67;;;1.52;;
26060;SDS011;36331;51.378;0.018;2022-07-26T05:51:18;3.38;;;1.55;;
26060;SDS011;36331;51.378;0.018;2022-07-26T05:53:49;4.28;;;1.60;;
26060;SDS011;36331;51.378;0.018;2022-07-26T05:56:19;4.43;;;1.48;;
26060;SDS011;36331;51.378;0.018;2022-07-26T05:58:51;9.63;;;1.98;;
26060;SDS011;36331;51.378;0.018;2022-07-26T06:03:50;5.53;;;1.60;;
26060;SDS011;36331;51.378;0.018;2022-07-26T06:06:20;6.07;;;1.52;;
26060;SDS011;36331;51.378;0.018;2022-07-26T06:08:51;9.88;;;1.90;;
26060;SDS011;36331;51.378;0.018;2022-07-26T06:11:26;4.43;;;1.60;;
26060;SDS011;36331;51.378;0.018;2022-07-26T06:14:01;6.40;;;1.88;;
26060;SDS011;36331;51.378;0.018;2022-07-26T06:16:35;5.15;;;2.38;;
26060;SDS011;36331;51.378;0.018;2022-07-26T06:19:05;5.80;;;1.67;;
26060;SDS011;36331;51.378;0.018;2022-07-26T06:21:35;6.97;;;2.40;;
26060;SDS011;36331;51.378;0.018;2022-07-26T06:24:05;2.85;;;1.52;;
26060;SDS011;36331;51.378;0.018;2022-07-26T06:26:36;4.82;;;2.47;;
26060;SDS011;36331;51.378;0.018;2022-07-26T06:29:07;4.10;;;2.35;;
26060;SDS011;36331;51.378;0.018;2022-07-26T06:31:39;6.20;;;2.47;;
26060;SDS011;36331;51.378;0.018;2022-07-26T06:36:42;8.07;;;2.53;;
26060;SDS011;36331;51.378;0.018;2022-07-26T06:39:14;10.20;;;3.15;;
26060;SDS011;36331;51.378;0.018;2022-07-26T06:41:45;5.15;;;2.90;;
26060;SDS011;36331;51.378;0.018;2022-07-26T06:44:25;6.82;;;2.17;;
26060;SDS011;36331;51.378;0.018;2022-07-26T06:46:55;7.07;;;2.75;;
26060;SDS011;36331;51.378;0.018;2022-07-26T06:49:25;5.43;;;2.50;;
26060;SDS011;36331;51.378;0.018;2022-07-26T06:51:55;4.68;;;2.40;;
26060;SDS011;36331;51.378;0.018;2022-07-26T06:54:25;6.22;;;2.88;;
26060;SDS011;36331;51.378;0.018;2022-07-26T06:56:55;4.38;;;2.95;;
26060;SDS011;36331;51.378;0.018;2022-07-26T06:59:26;10.93;;;3.00;;
26060;SDS011;36331;51.378;0.018;2022-07-26T07:01:56;4.00;;;2.70;;
26060;SDS011;36331;51.378;0.018;2022-07-26T07:04:29;7.28;;;2.53;;
26060;SDS011;36331;51.378;0.018;2022-07-26T07:07:00;7.47;;;2.60;;
26060;SDS011;36331;51.378;0.018;2022-07-26T07:09:32;7.55;;;3.03;;
26060;SDS011;36331;51.378;0.018;2022-07-26T07:12:02;6.93;;;3.17;;
26060;SDS011;36331;51.378;0.018;2022-07-26T07:14:38;3.67;;;2.53;;
26060;SDS011;36331;51.378;0.018;2022-07-26T07:17:08;3.65;;;2.50;;
26060;SDS011;36331;51.378;0.018;2022-07-26T07:19:46;8.60;;;2.60;;
26060;SDS011;36331;51.378;0.018;2022-07-26T07:22:16;7.15;;;2.97;;
26060;SDS011;36331;51.378;0.018;2022-07-26T07:24:45;4.32;;;2.60;;
26060;SDS011;36331;51.378;0.018;2022-07-26T07:27:15;7.45;;;2.58;;
26060;SDS011;36331;51.378;0.018;2022-07-26T07:29:48;8.63;;;3.00;;
26060;SDS011;36331;51.378;0.018;2022-07-26T07:32:18;5.82;;;2.90;;
26060;SDS011;36331;51.378;0.018;2022-07-26T07:34:53;3.10;;;2.53;;
26060;SDS011;36331;51.378;0.018;2022-07-26T07:37:23;4.43;;;2.35;;
26060;SDS011;36331;51.378;0.018;2022-07-26T07:40:13;5.25;;;2.20;;
26060;SDS011;36331;51.378;0.018;2022-07-26T07:42:43;4.80;;;2.40;;
26060;SDS011;36331;51.378;0.018;2022-07-26T07:45:14;7.03;;;2.67;;
26060;SDS011;36331;51.378;0.018;2022-07-26T07:47:44;5.82;;;2.78;;
26060;SDS011;36331;51.378;0.018;2022-07-26T07:50:19;4.30;;;2.40;;
26060;SDS011;36331;51.378;0.018;2022-07-26T07:52:53;4.43;;;2.50;;
26060;SDS011;36331;51.378;0.018;2022-07-26T07:55:25;6.32;;;2.63;;
26060;SDS011;36331;51.378;0.018;2022-07-26T07:58:13;7.40;;;2.42;;
26060;SDS011;36331;51.378;0.018;2022-07-26T08:00:46;7.85;;;3.05;;
26060;SDS011;36331;51.378;0.018;2022-07-26T08:03:16;6.40;;;2.17;;
26060;SDS011;36331;51.378;0.018;2022-07-26T08:05:46;5.75;;;2.75;;
26060;SDS011;36331;51.378;0.018;2022-07-26T08:08:18;5.00;;;2.90;;
26060;SDS011;36331;51.378;0.018;2022-07-26T08:10:49;5.15;;;2.90;;
26060;SDS011;36331;51.378;0.018;2022-07-26T08:13:23;5.82;;;3.55;;
26060;SDS011;36331;51.378;0.018;2022-07-26T08:16:06;9.32;;;3.42;;
26060;SDS011;36331;51.378;0.018;2022-07-26T08:18:37;5.30;;;3.67;;
26060;SDS011;36331;51.378;0.018;2022-07-26T08:21:23;4.65;;;3.85;;
26060;SDS011;36331;51.378;0.018;2022-07-26T08:23:55;4.18;;;3.60;;
26060;SDS011;36331;51.378;0.018;2022-07-26T08:26:24;4.47;;;3.15;;
26060;SDS011;36331;51.378;0.018;2022-07-26T08:28:53;7.70;;;3.22;;
26060;SDS011;36331;51.378;0.018;2022-07-26T08:31:31;5.70;;;3.53;;
26060;SDS011;36331;51.378;0.018;2022-07-26T08:34:03;6.22;;;3.45;;
26060;SDS011;36331;51.378;0.018;2022-07-26T08:36:47;6.45;;;3.60;;
26060;SDS011;36331;51.378;0.018;2022-07-26T08:39:37;5.93;;;3.45;;
26060;SDS011;36331;51.378;0.018;2022-07-26T08:42:11;5.22;;;3.22;;
26060;SDS011;36331;51.378;0.018;2022-07-26T08:44:49;5.93;;;3.50;;
26060;SDS011;36331;51.378;0.018;2022-07-26T08:47:21;4.35;;;2.70;;
26060;SDS011;36331;51.378;0.018;2022-07-26T08:50:04;7.97;;;3.65;;
26060;SDS011;36331;51.378;0.018;2022-07-26T08:52:34;5.88;;;3.17;;
26060;SDS011;36331;51.378;0.018;2022-07-26T08:55:05;5.32;;;2.83;;
26060;SDS011;36331;51.378;0.018;2022-07-26T08:57:35;4.43;;;3.00;;
26060;SDS011;36331;51.378;0.018;2022-07-26T09:00:14;3.35;;;2.85;;
26060;SDS011;36331;51.378;0.018;2022-07-26T09:02:46;4.68;;;2.80;;
26060;SDS011;36331;51.378;0.018;2022-07-26T09:05:17;2.75;;;2.35;;
26060;SDS011;36331;51.378;0.018;2022-07-26T09:07:47;4.28;;;2.78;;
26060;SDS011;36331;51.378;0.018;2022-07-26T09:10:16;4.95;;;2.70;;
26060;SDS011;36331;51.378;0.018;2022-07-26T09:12:52;3.58;;;2.65;;
26060;SDS011;36331;51.378;0.018;2022-07-26T09:15:22;4.05;;;2.17;;
26060;SDS011;36331;51.378;0.018;2022-07-26T09:20:25;6.57;;;2.50;;
26060;SDS011;36331;51.378;0.018;2022-07-26T09:22:56;4.70;;;2.80;;
26060;SDS011;36331;51.378;0.018;2022-07-26T09:25:27;3.80;;;2.67;;
26060;SDS011;36331;51.378;0.018;2022-07-26T09:27:57;4.05;;;2.63;;
26060;SDS011;36331;51.378;0.018;2022-07-26T09:30:27;6.88;;;3.10;;
26060;SDS011;36331;51.378;0.018;2022-07-26T09:32:58;5.85;;;2.75;;
26060;SDS011;36331;51.378;0.018;2022-07-26T09:35:34;4.70;;;2.60;;
26060;SDS011;36331;51.378;0.018;2022-07-26T09:38:18;6.10;;;2.90;;
26060;SDS011;36331;51.378;0.018;2022-07-26T09:40:48;5.93;;;2.95;;
26060;SDS011;36331;51.378;0.018;2022-07-26T09:43:22;4.35;;;3.22;;
26060;SDS011;36331;51.378;0.018;2022-07-26T09:46:02;4.40;;;3.17;;
26060;SDS011;36331;51.378;0.018;2022-07-26T09:48:33;5.93;;;3.58;;
26060;SDS011;36331;51.378;0.018;2022-07-26T09:51:37;3.97;;;3.10;;
26060;SDS011;36331;51.378;0.018;2022-07-26T09:54:16;5.22;;;3.08;;
26060;SDS011;36331;51.378;0.018;2022-07-26T09:56:49;3.88;;;3.45;;
26060;SDS011;36331;51.378;0.018;2022-07-26T09:59:37;4.38;;;2.80;;
26060;SDS011;36331;51.378;0.018;2022-07-26T10:02:06;5.00;;;3.17;;
26060;SDS011;36331;51.378;0.018;2022-07-26T10:04:39;6.43;;;3.13;;
26060;SDS011;36331;51.378;0.018;2022-07-26T10:07:19;9.82;;;3.80;;
26060;SDS011;36331;51.378;0.018;2022-07-26T10:10:12;6.07;;;3.05;;
26060;SDS011;36331;51.378;0.018;2022-07-26T10:12:42;6.72;;;3.67;;
26060;SDS011;36331;51.378;0.018;2022-07-26T10:17:58;4.47;;;3.10;;
26060;SDS011;36331;51.378;0.018;2022-07-26T10:20:38;5.85;;;3.83;;
26060;SDS011;36331;51.378;0.018;2022-07-26T10:23:43;6.78;;;3.05;;
26060;SDS011;36331;51.378;0.018;2022-07-26T10:26:36;7.88;;;4.18;;
26060;SDS011;36331;51.378;0.018;2022-07-26T10:29:20;4.90;;;3.15;;
26060;SDS011;36331;51.378;0.018;2022-07-26T10:32:12;5.50;;;3.30;;
26060;SDS011;36331;51.378;0.018;2022-07-26T10:34:43;4.38;;;2.47;;
26060;SDS011;36331;51.378;0.018;2022-07-26T10:37:23;7.68;;;2.90;;
26060;SDS011;36331;51.378;0.018;2022-07-26T10:42:44;3.75;;;2.63;;
26060;SDS011;36331;51.378;0.018;2022-07-26T10:45:17;3.92;;;2.30;;
26060;SDS011;36331;51.378;0.018;2022-07-26T10:50:38;7.28;;;2.33;;
26060;SDS011;36331;51.378;0.018;2022-07-26T10:53:08;5.82;;;2.95;;
26060;SDS011;36331;51.378;0.018;2022-07-26T10:55:47;3.85;;;2.20;;
26060;SDS011;36331;51.378;0.018;2022-07-26T10:58:20;2.95;;;1.90;;
26060;SDS011;36331;51.378;0.018;2022-07-26T11:00:55;3.55;;;2.30;;
26060;SDS011;36331;51.378;0.018;2022-07-26T11:03:25;4.90;;;2.30;;
26060;SDS011;36331;51.378;0.018;2022-07-26T11:06:12;3.08;;;2.45;;
26060;SDS011;36331;51.378;0.018;2022-07-26T11:08:43;4.85;;;2.25;;
26060;SDS011;36331;51.378;0.018;2022-07-26T11:11:34;6.07;;;2.30;;
26060;SDS011;36331;51.378;0.018;2022-07-26T11:14:10;2.55;;;1.90;;
26060;SDS011;36331;51.378;0.018;2022-07-26T11:16:47;4.45;;;2.45;;
26060;SDS011;36331;51.378;0.018;2022-07-26T11:19:18;5.70;;;2.55;;
26060;SDS011;36331;51.378;0.018;2022-07-26T11:21:51;5.20;;;2.28;;
26060;SDS011;36331;51.378;0.018;2022-07-26T11:24:21;4.28;;;2.38;;
26060;SDS011;36331;51.378;0.018;2022-07-26T11:26:54;3.47;;;2.03;;
26060;SDS011;36331;51.378;0.018;2022-07-26T11:29:27;4.45;;;2.17;;
26060;SDS011;36331;51.378;0.018;2022-07-26T11:32:14;4.32;;;2.50;;
26060;SDS011;36331;51.378;0.018;2022-07-26T11:34:45;3.78;;;2.58;;
26060;SDS011;36331;51.378;0.018;2022-07-26T11:37:20;4.32;;;2.30;;
26060;SDS011;36331;51.378;0.018;2022-07-26T11:39:50;5.63;;;2.55;;
26060;SDS011;36331;51.378;0.018;2022-07-26T11:42:21;4.95;;;2.33;;
26060;SDS011;36331;51.378;0.018;2022-07-26T11:44:54;4.90;;;2.58;;
26060;SDS011;36331;51.378;0.018;2022-07-26T11:49:53;7.00;;;2.70;;
26060;SDS011;36331;51.378;0.018;2022-07-26T11:52:45;5.22;;;2.42;;
26060;SDS011;36331;51.378;0.018;2022-07-26T11:55:16;5.85;;;2.53;;
26060;SDS011;36331;51.378;0.018;2022-07-26T11:57:53;3.65;;;2.45;;
26060;SDS011;36331;51.378;0.018;2022-07-26T12:00:25;5.87;;;2.60;;
26060;SDS011;36331;51.378;0.018;2022-07-26T12:02:55;3.55;;;2.53;;
26060;SDS011;36331;51.378;0.018;2022-07-26T12:05:26;4.75;;;2.80;;
26060;SDS011;36331;51.378;0.018;2022-07-26T12:07:57;5.20;;;2.47;;
26060;SDS011;36331;51.378;0.018;2022-07-26T12:10:29;7.18;;;2.88;;
26060;SDS011;36331;51.378;0.018;2022-07-26T12:13:07;4.63;;;2.65;;
26060;SDS011;36331;51.378;0.018;2022-07-26T12:15:49;5.25;;;3.00;;
26060;SDS011;36331;51.378;0.018;2022-07-26T12:18:23;6.00;;;3.70;;
26060;SDS011;36331;51.378;0.018;2022-07-26T12:20:55;3.72;;;2.25;;
26060;SDS011;36331;51.378;0.018;2022-07-26T12:23:39;6.22;;;2.53;;
26060;SDS011;36331;51.378;0.018;2022-07-26T12:26:19;4.18;;;2.70;;
26060;SDS011;36331;51.378;0.018;2022-07-26T12:28:49;5.15;;;2.60;;
26060;SDS011;36331;51.378;0.018;2022-07-26T12:31:35;7.72;;;2.92;;
26060;SDS011;36331;51.378;0.018;2022-07-26T12:34:05;7.97;;;2.47;;
26060;SDS011;36331;51.378;0.018;2022-07-26T12:36:35;5.32;;;1.90;;
26060;SDS011;36331;51.378;0.018;2022-07-26T12:39:05;2.03;;;1.75;;
26060;SDS011;36331;51.378;0.018;2022-07-26T12:41:35;3.40;;;1.80;;
26060;SDS011;36331;51.378;0.018;2022-07-26T12:44:05;4.20;;;1.92;;
26060;SDS011;36331;51.378;0.018;2022-07-26T12:46:40;6.38;;;2.00;;
26060;SDS011;36331;51.378;0.018;2022-07-26T12:49:13;2.95;;;1.45;;
26060;SDS011;36331;51.378;0.018;2022-07-26T12:51:44;4.53;;;1.73;;
26060;SDS011;36331;51.378;0.018;2022-07-26T12:54:13;3.08;;;1.73;;
26060;SDS011;36331;51.378;0.018;2022-07-26T12:56:44;4.50;;;1.63;;
26060;SDS011;36331;51.378;0.018;2022-07-26T12:59:14;4.78;;;1.80;;
26060;SDS011;36331;51.378;0.018;2022-07-26T13:01:46;5.03;;;2.22;;
26060;SDS011;36331;51.378;0.018;2022-07-26T13:04:16;5.97;;;1.98;;
26060;SDS011;36331;51.378;0.018;2022-07-26T13:06:48;7.32;;;1.80;;
26060;SDS011;36331;51.378;0.018;2022-07-26T13:09:18;4.28;;;1.70;;
26060;SDS011;36331;51.378;0.018;2022-07-26T13:11:49;6.97;;;1.90;;
26060;SDS011;36331;51.378;0.018;2022-07-26T13:14:20;7.65;;;2.30;;
26060;SDS011;36331;51.378;0.018;2022-07-26T13:16:53;4.30;;;2.78;;
26060;SDS011;36331;51.378;0.018;2022-07-26T13:19:25;3.83;;;2.00;;
26060;SDS011;36331;51.378;0.018;2022-07-26T13:21:55;5.57;;;2.55;;
26060;SDS011;36331;51.378;0.018;2022-07-26T13:24:26;6.35;;;2.22;;
26060;SDS011;36331;51.378;0.018;2022-07-26T13:27:00;4.47;;;1.85;;
26060;SDS011;36331;51.378;0.018;2022-07-26T13:29:35;2.63;;;1.58;;
26060;SDS011;36331;51.378;0.018;2022-07-26T13:32:07;5.53;;;2.08;;
26060;SDS011;36331;51.378;0.018;2022-07-26T13:34:37;4.15;;;2.05;;
26060;SDS011;36331;51.378;0.018;2022-07-26T13:37:21;4.72;;;2.83;;
26060;SDS011;36331;51.378;0.018;2022-07-26T13:39:51;3.58;;;1.85;;
26060;SDS011;36331;51.378;0.018;2022-07-26T13:42:20;6.20;;;2.10;;
26060;SDS011;36331;51.378;0.018;2022-07-26T13:44:50;4.22;;;1.77;;
26060;SDS011;36331;51.378;0.018;2022-07-26T13:47:21;7.15;;;3.15;;
26060;SDS011;36331;51.378;0.018;2022-07-26T13:49:54;6.72;;;2.60;;
26060;SDS011;36331;51.378;0.018;2022-07-26T13:52:27;6.13;;;2.58;;
26060;SDS011;36331;51.378;0.018;2022-07-26T13:54:56;3.95;;;2.42;;
26060;SDS011;36331;51.378;0.018;2022-07-26T13:57:26;3.92;;;2.15;;
26060;SDS011;36331;51.378;0.018;2022-07-26T14:00:17;4.32;;;1.95;;
26060;SDS011;36331;51.378;0.018;2022-07-26T14:02:52;5.40;;;2.60;;
26060;SDS011;36331;51.378;0.018;2022-07-26T14:05:23;3.65;;;2.08;;
26060;SDS011;36331;51.378;0.018;2022-07-26T14:07:54;3.90;;;1.80;;
26060;SDS011;36331;51.378;0.018;2022-07-26T14:10:25;4.85;;;2.25;;
26060;SDS011;36331;51.378;0.018;2022-07-26T14:12:55;4.57;;;2.37;;
26060;SDS011;36331;51.378;0.018;2022-07-26T14:15:28;5.20;;;1.80;;
26060;SDS011;36331;51.378;0.018;2022-07-26T14:17:59;3.38;;;1.67;;
26060;SDS011;36331;51.378;0.018;2022-07-26T14:20:29;4.85;;;1.80;;
26060;SDS011;36331;51.378;0.018;2022-07-26T14:22:58;3.70;;;1.33;;
26060;SDS011;36331;51.378;0.018;2022-07-26T14:25:28;4.60;;;2.08;;
26060;SDS011;36331;51.378;0.018;2022-07-26T14:27:59;3.87;;;2.07;;
26060;SDS011;36331;51.378;0.018;2022-07-26T14:30:30;7.55;;;2.92;;
26060;SDS011;36331;51.378;0.018;2022-07-26T14:33:01;4.05;;;2.25;;
26060;SDS011;36331;51.378;0.018;2022-07-26T14:35:34;5.50;;;2.25;;
26060;SDS011;36331;51.378;0.018;2022-07-26T14:38:04;4.60;;;1.52;;
26060;SDS011;36331;51.378;0.018;2022-07-26T14:40:34;4.18;;;1.90;;
26060;SDS011;36331;51.378;0.018;2022-07-26T14:43:05;5.95;;;1.90;;
26060;SDS011;36331;51.378;0.018;2022-07-26T14:45:39;4.35;;;2.60;;
26060;SDS011;36331;51.378;0.018;2022-07-26T14:48:11;5.55;;;1.90;;
26060;SDS011;36331;51.378;0.018;2022-07-26T14:51:04;4.53;;;1.60;;
26060;SDS011;36331;51.378;0.018;2022-07-26T14:53:37;6.88;;;1.50;;
26060;SDS011;36331;51.378;0.018;2022-07-26T14:56:07;3.38;;;1.70;;
26060;SDS011;36331;51.378;0.018;2022-07-26T14:58:36;4.18;;;1.50;;
26060;SDS011;36331;51.378;0.018;2022-07-26T15:01:07;8.82;;;1.80;;
26060;SDS011;36331;51.378;0.018;2022-07-26T15:03:38;9.73;;;2.17;;
26060;SDS011;36331;51.378;0.018;2022-07-26T15:06:07;4.43;;;1.70;;
26060;SDS011;36331;51.378;0.018;2022-07-26T15:08:36;7.38;;;1.60;;
26060;SDS011;36331;51.378;0.018;2022-07-26T15:11:06;7.60;;;1.80;;
26060;SDS011;36331;51.378;0.018;2022-07-26T15:13:35;4.45;;;1.50;;
26060;SDS011;36331;51.378;0.018;2022-07-26T15:16:06;3.70;;;1.60;;
26060;SDS011;36331;51.378;0.018;2022-07-26T15:18:40;3.53;;;1.63;;
26060;SDS011;36331;51.378;0.018;2022-07-26T15:21:10;4.53;;;1.70;;
26060;SDS011;36331;51.378;0.018;2022-07-26T15:23:43;4.22;;;1.20;;
26060;SDS011;36331;51.378;0.018;2022-07-26T15:26:12;3.08;;;1.13;;
26060;SDS011;36331;51.378;0.018;2022-07-26T15:28:42;3.97;;;1.73;;
26060;SDS011;36331;51.378;0.018;2022-07-26T15:31:11;3.78;;;1.23;;
26060;SDS011;36331;51.378;0.018;2022-07-26T15:36:28;4.35;;;1.42;;
26060;SDS011;36331;51.378;0.018;2022-07-26T15:38:58;7.55;;;1.92;;
26060;SDS011;36331;51.378;0.018;2022-07-26T15:41:42;3.55;;;1.60;;